Funk Island Bank: Past 24 Hour Conditions

 

St. Anthony Airport

08:30 PM NDT 19 September 2014
This table is a summary of hourly weather conditions for the past 24 hours.
Date / Time
(NDT)
Wind(knots) Conditions Visibility(km) Pressure(kPa) Air tempC) Relative humidity(%) Dew pointC)
19 September 2014
20:30 W 15 gust 21 Partly Cloudy 16 101.1 7 67 1
19:30 W 15 gust 22 Partly Cloudy 16 101.0 7 61 0
18:30 W 13 gust 24 Mostly Cloudy 16 101.0 8 53 -1
17:30 WSW 18 gust 28 Mainly Sunny 16 101.0 9 43 -3
16:30 WSW 21 gust 27 Sunny 16 100.9 10 42 -2
15:30 WSW 18 gust 23 Mostly Cloudy 16 100.9 11 42 -2
14:30 W 14 gust 20 Partly Cloudy 16 100.9 9 44 -3
13:30 WNW 16 Partly Cloudy 16 100.9 9 55 0
12:30 WNW 14 Cloudy 16 101.0 8 68 2
11:30 WNW 13 gust 18 Cloudy 16 101.0 6 73 2
10:30 NW 12 Cloudy 16 100.9 6 79 2
9:30 NW 13 gust 19 Cloudy 16 100.9 5 82 2
8:30 NW 10 gust 16 Cloudy 16 100.9 5 87 3
7:30 WNW 11 gust 17 Cloudy 16 100.8 5 89 3
6:30 WSW 11 Cloudy 16 100.8 6 88 4
5:30 WSW 11 gust 18 Cloudy 16 100.7 6 90 5
4:30 SW 16 gust 22 Cloudy 16 100.7 7 88 5
3:30 SW 15 gust 22 Cloudy 16 100.7 8 88 6
2:30 SW 15 Cloudy 16 100.7 9 91 8
1:30 SW 13 Cloudy 16 100.7 10 92 9
0:30 SSW 9 gust 15 Light Rain 16 100.7 11 93 10
18 September 2014
23:30 SSE 8 Light Rain 16 100.7 11 94 10
22:30 SSE 11 gust 16 Cloudy 16 100.7 11 92 10
21:30 SSE 12 gust 19 Light Rain 16 100.8 11 89 10
20:30 SE 16 Cloudy 16 100.8 11 89 9
 
Map of Atlantic - Newfoundland marine weather areas Southwestern Grand Banks - 44138 Banquereau - 44139 Tail of the Bank - 44140 Nickerson Bank - 44251 Northeast Burgeo Bank - 44255 Blanc-Sablon Airport Cap Whittle Chevery Natashquan Airport Heath Point Miscou Island Grand Étang Ingonish Beach North Mountain St.Paul Island J.A. Douglas McCurdy Sydney Airport Charlottetown Airport East Point North Cape Argentia Bonavista Burgeo Cape Race Corner Brook Daniel's Harbour Englee Ferolle Point La Scie Port aux Basques Rocky Harbour Sagona Island St. Anthony Airport St. John's Int'l Airport St. Lawrence Stephenville Airport Twillingate Winterland Wreckhouse Cartwright Airport Mary's Harbour Grates Cove Pool's Island Marticot Island Long Pond Îles de la Madeleine Airport
Legend: buoyBuoy land stationLand Station